createdAt,value
2022-09-12T00:00:17.133Z,100.00
2022-09-12T00:02:44.647Z,100.00
2022-09-12T00:05:12.110Z,100.00
2022-09-12T00:07:39.554Z,100.00
2022-09-12T00:10:07.599Z,100.00
2022-09-12T00:12:35.115Z,100.00
2022-09-12T00:15:02.674Z,100.00
2022-09-12T00:17:31.520Z,100.00
2022-09-12T00:19:59.054Z,100.00
2022-09-12T00:22:26.528Z,100.00
2022-09-12T00:24:54.000Z,100.00
2022-09-12T00:27:21.486Z,100.00
2022-09-12T00:29:48.951Z,100.00
2022-09-12T00:32:16.447Z,100.00
2022-09-12T00:34:45.400Z,100.00
2022-09-12T00:37:13.039Z,100.00
2022-09-12T00:39:40.653Z,100.00
2022-09-12T00:42:10.143Z,100.00
2022-09-12T00:44:47.949Z,100.00
2022-09-12T00:47:19.046Z,100.00
2022-09-12T00:49:52.213Z,100.00
2022-09-12T00:52:25.383Z,100.00
2022-09-12T00:54:57.536Z,100.00
2022-09-12T00:57:29.485Z,100.00
2022-09-12T01:00:00.320Z,100.00
2022-09-12T01:02:28.956Z,100.00
2022-09-12T01:04:58.402Z,100.00
2022-09-12T01:07:25.965Z,100.00
2022-09-12T01:09:53.742Z,100.00
2022-09-12T01:12:21.654Z,100.00
2022-09-12T01:14:49.121Z,100.00
2022-09-12T01:17:16.988Z,100.00
2022-09-12T01:20:21.859Z,100.00
2022-09-12T01:23:11.737Z,100.00
2022-09-12T01:25:51.585Z,100.00
2022-09-12T01:28:47.385Z,100.00
2022-09-12T01:31:21.972Z,100.00
2022-09-12T01:34:03.477Z,100.00
2022-09-12T01:36:38.113Z,100.00
2022-09-12T01:39:09.627Z,100.00
2022-09-12T01:41:49.945Z,100.00
2022-09-12T01:44:27.372Z,100.00
2022-09-12T01:47:01.872Z,100.00
2022-09-12T01:49:37.311Z,100.00
2022-09-12T01:52:13.912Z,100.00
2022-09-12T01:54:46.405Z,100.00
2022-09-12T01:57:17.942Z,100.00
2022-09-12T01:59:48.922Z,100.00
2022-09-12T02:02:23.812Z,100.00
2022-09-12T02:04:59.190Z,100.00
2022-09-12T02:07:35.710Z,100.00
2022-09-12T02:10:08.576Z,100.00
2022-09-12T02:12:43.588Z,100.00
2022-09-12T02:15:13.502Z,100.00
2022-09-12T02:17:45.319Z,100.00
2022-09-12T02:20:37.195Z,100.00
2022-09-12T02:23:09.687Z,100.00
2022-09-12T02:25:40.900Z,100.00
2022-09-12T02:28:13.439Z,100.00
2022-09-12T02:30:44.630Z,100.00
2022-09-12T02:33:24.027Z,100.00
2022-09-12T02:35:58.184Z,100.00
2022-09-12T02:38:32.720Z,100.00
2022-09-12T02:41:00.275Z,100.00
2022-09-12T02:43:27.832Z,100.00
2022-09-12T02:45:55.340Z,100.00
2022-09-12T02:48:28.468Z,100.00
2022-09-12T02:50:56.239Z,100.00
2022-09-12T02:53:24.340Z,100.00
2022-09-12T02:55:52.994Z,100.00
2022-09-12T02:58:24.076Z,100.00
2022-09-12T03:01:01.129Z,100.00
2022-09-12T03:03:45.895Z,100.00
2022-09-12T03:06:19.207Z,100.00
2022-09-12T03:09:01.622Z,100.00
2022-09-12T03:11:44.212Z,100.00
2022-09-12T03:14:23.340Z,100.00
2022-09-12T03:16:58.314Z,100.00
2022-09-12T03:19:36.190Z,100.00
2022-09-12T03:22:11.397Z,100.00
2022-09-12T03:24:45.972Z,100.00
2022-09-12T03:27:18.023Z,100.00
2022-09-12T03:29:48.118Z,100.00
2022-09-12T03:32:16.552Z,100.00
2022-09-12T03:34:45.364Z,100.00
2022-09-12T03:37:12.843Z,100.00
2022-09-12T03:39:40.394Z,100.00
2022-09-12T03:42:07.997Z,100.00
2022-09-12T03:44:35.473Z,100.00
2022-09-12T03:47:02.924Z,100.00
2022-09-12T03:49:30.389Z,100.00
2022-09-12T03:51:59.199Z,100.00
2022-09-12T03:54:26.654Z,100.00
2022-09-12T03:56:54.113Z,100.00
2022-09-12T03:59:21.608Z,100.00
2022-09-12T04:01:49.087Z,100.00
2022-09-12T04:04:16.531Z,100.00
2022-09-12T04:06:44.074Z,100.00
2022-09-12T04:09:12.909Z,100.00
2022-09-12T04:11:40.409Z,100.00
2022-09-12T04:14:07.951Z,100.00
2022-09-12T04:16:35.457Z,100.00
2022-09-12T04:19:03.008Z,100.00
2022-09-12T04:21:30.912Z,100.00
2022-09-12T04:23:58.411Z,100.00
2022-09-12T04:26:29.693Z,100.00
2022-09-12T04:28:57.575Z,100.00
2022-09-12T04:31:26.115Z,100.00
2022-09-12T04:33:57.849Z,100.00
2022-09-12T04:36:26.222Z,100.00
2022-09-12T04:38:53.792Z,100.00
2022-09-12T04:41:22.998Z,100.00
2022-09-12T04:43:55.133Z,100.00
2022-09-12T04:46:22.932Z,100.00
2022-09-12T04:48:54.610Z,100.00
2022-09-12T04:51:27.634Z,100.00
2022-09-12T04:53:56.729Z,100.00
2022-09-12T04:56:25.205Z,100.00
2022-09-12T04:58:54.024Z,100.00
2022-09-12T05:01:23.165Z,100.00
2022-09-12T05:03:51.745Z,100.00
2022-09-12T05:06:21.988Z,100.00
2022-09-12T05:08:49.877Z,100.00
2022-09-12T05:11:24.087Z,100.00
2022-09-12T05:13:54.160Z,100.00
2022-09-12T05:16:22.758Z,100.00
2022-09-12T05:18:50.417Z,100.00
2022-09-12T05:21:19.895Z,100.00
2022-09-12T05:23:48.634Z,100.00
2022-09-12T05:26:17.266Z,100.00
2022-09-12T05:28:44.726Z,100.00
2022-09-12T05:31:15.648Z,100.00
2022-09-12T05:33:45.679Z,100.00
2022-09-12T05:36:15.459Z,100.00
2022-09-12T05:38:42.949Z,100.00
2022-09-12T05:41:16.650Z,100.00
2022-09-12T05:43:46.533Z,100.00
2022-09-12T05:46:17.240Z,100.00
2022-09-12T05:48:46.436Z,100.00
2022-09-12T05:51:17.454Z,100.00
2022-09-12T05:53:45.158Z,100.00
2022-09-12T05:56:14.429Z,100.00
2022-09-12T05:58:45.189Z,100.00
2022-09-12T06:01:15.947Z,100.00
2022-09-12T06:03:46.205Z,100.00
2022-09-12T06:06:14.836Z,100.00
2022-09-12T06:08:44.199Z,100.00
2022-09-12T06:11:13.306Z,100.00
2022-09-12T06:13:42.116Z,100.00
2022-09-12T06:16:11.762Z,100.00
2022-09-12T06:18:41.535Z,100.00
2022-09-12T06:21:11.326Z,100.00
2022-09-12T06:23:40.064Z,100.00
2022-09-12T06:26:11.004Z,100.00
2022-09-12T06:28:40.601Z,100.00
2022-09-12T06:31:10.925Z,100.00
2022-09-12T06:33:41.902Z,100.00
2022-09-12T06:36:12.541Z,100.00
2022-09-12T06:38:40.425Z,100.00
2022-09-12T06:41:09.112Z,100.00
2022-09-12T06:43:37.214Z,100.00
2022-09-12T06:46:05.388Z,100.00
2022-09-12T06:48:33.190Z,100.00
2022-09-12T06:51:04.776Z,100.00
2022-09-12T06:53:34.226Z,100.00
2022-09-12T06:56:03.335Z,100.00
2022-09-12T06:58:31.410Z,100.00
2022-09-12T07:01:03.197Z,100.00
2022-09-12T07:03:30.736Z,100.00
2022-09-12T07:05:58.708Z,100.00
2022-09-12T07:08:31.710Z,100.00
2022-09-12T07:11:01.169Z,100.00
2022-09-12T07:13:28.710Z,100.00
2022-09-12T07:15:56.287Z,100.00
2022-09-12T07:18:24.154Z,100.00
2022-09-12T07:20:51.598Z,100.00
2022-09-12T07:23:19.066Z,100.00
2022-09-12T07:25:57.036Z,96.91
2022-09-12T07:28:25.249Z,100.00
2022-09-12T07:30:53.898Z,97.34
2022-09-12T07:33:21.728Z,96.16
2022-09-12T07:35:49.556Z,89.50
2022-09-12T07:38:17.116Z,85.03
2022-09-12T07:40:44.606Z,81.44
2022-09-12T07:43:13.469Z,74.70
2022-09-12T07:45:42.282Z,69.13
2022-09-12T07:48:10.414Z,65.64
2022-09-12T07:50:40.035Z,64.15
2022-09-12T07:53:11.550Z,60.49
2022-09-12T07:55:38.992Z,56.86
2022-09-12T07:58:06.476Z,53.72
2022-09-12T08:00:36.369Z,53.00
2022-09-12T08:03:04.415Z,53.60
2022-09-12T08:05:31.861Z,56.40
2022-09-12T08:07:59.307Z,57.20
2022-09-12T08:10:26.742Z,53.74
2022-09-12T08:12:54.226Z,51.22
2022-09-12T08:15:21.895Z,49.49
2022-09-12T08:17:50.826Z,45.69
2022-09-12T08:20:18.536Z,45.01
2022-09-12T08:22:46.015Z,46.17
2022-09-12T08:25:13.530Z,45.21
2022-09-12T08:27:41.220Z,45.60
2022-09-12T08:30:09.790Z,42.57
2022-09-12T08:32:37.243Z,42.88
2022-09-12T08:35:07.990Z,39.70
2022-09-12T08:37:35.443Z,38.07
2022-09-12T08:40:06.576Z,36.81
2022-09-12T08:42:48.924Z,35.42
2022-09-12T08:45:23.751Z,36.12
2022-09-12T08:47:52.008Z,37.48
2022-09-12T08:50:23.287Z,37.89
2022-09-12T08:52:58.391Z,40.21
2022-09-12T08:55:31.346Z,42.91
2022-09-12T08:58:00.455Z,44.33
2022-09-12T09:00:38.031Z,44.70
2022-09-12T09:03:24.991Z,46.04
2022-09-12T09:06:02.334Z,45.75
2022-09-12T09:08:45.954Z,47.61
2022-09-12T09:11:30.479Z,53.09
2022-09-12T09:14:27.352Z,57.84
2022-09-12T09:16:57.191Z,61.73
2022-09-12T09:19:27.959Z,59.15
2022-09-12T09:22:01.657Z,55.21
2022-09-12T09:24:35.789Z,55.01
2022-09-12T09:27:23.613Z,54.34
2022-09-12T09:29:56.884Z,60.07
2022-09-12T09:32:28.051Z,56.12
2022-09-12T09:34:55.582Z,54.37
2022-09-12T09:37:34.908Z,63.73
2022-09-12T09:40:12.000Z,74.14
2022-09-12T09:42:46.897Z,88.42
2022-09-12T09:45:16.820Z,90.83
2022-09-12T09:47:46.788Z,74.67
2022-09-12T09:50:17.474Z,67.58
2022-09-12T09:52:48.256Z,62.14
2022-09-12T09:55:21.004Z,58.12
2022-09-12T09:57:49.890Z,53.82
2022-09-12T10:00:27.011Z,48.57
2022-09-12T10:03:04.556Z,46.74
2022-09-12T10:05:35.552Z,44.95
2022-09-12T10:08:08.081Z,44.13
2022-09-12T10:10:35.547Z,43.97
2022-09-12T10:13:25.991Z,42.29
2022-09-12T10:16:02.416Z,41.92
2022-09-12T10:18:35.816Z,40.63
2022-09-12T10:21:13.299Z,41.01
2022-09-12T10:23:43.498Z,40.82
2022-09-12T10:26:13.775Z,40.86
2022-09-12T10:28:43.619Z,39.67
2022-09-12T10:31:15.652Z,38.95
2022-09-12T10:33:47.261Z,39.27
2022-09-12T10:36:16.532Z,39.04
2022-09-12T10:38:51.951Z,38.97
2022-09-12T10:41:20.480Z,38.52
2022-09-12T10:43:48.353Z,40.76
2022-09-12T10:46:25.060Z,39.87
2022-09-12T10:49:13.008Z,38.03
2022-09-12T10:51:40.454Z,35.96
2022-09-12T10:54:12.678Z,36.28
2022-09-12T10:56:47.738Z,38.13
2022-09-12T10:59:29.466Z,37.50
2022-09-12T11:02:01.406Z,40.79
2022-09-12T11:04:41.842Z,42.77
2022-09-12T11:07:29.751Z,42.17
2022-09-12T11:10:03.800Z,39.28
2022-09-12T11:12:41.143Z,40.98
2022-09-12T11:15:39.588Z,38.54
2022-09-12T11:18:15.394Z,38.92
2022-09-12T11:20:55.798Z,38.25
2022-09-12T11:23:46.505Z,40.28
2022-09-12T11:26:27.658Z,40.90
2022-09-12T11:29:08.134Z,41.37
2022-09-12T11:31:53.642Z,42.69
2022-09-12T11:34:34.611Z,44.00
2022-09-12T11:37:21.233Z,43.74
2022-09-12T11:39:55.397Z,42.70
2022-09-12T11:42:29.408Z,40.24
2022-09-12T11:45:04.093Z,37.29
2022-09-12T11:47:34.822Z,39.08
2022-09-12T11:50:14.993Z,40.61
2022-09-12T11:52:42.507Z,43.13
2022-09-12T11:55:18.050Z,44.36
2022-09-12T11:57:53.469Z,44.86
2022-09-12T12:00:22.790Z,42.79
2022-09-12T12:03:01.122Z,42.04
2022-09-12T12:05:35.154Z,42.10
2022-09-12T12:08:05.839Z,44.51
2022-09-12T12:10:37.709Z,40.90
2022-09-12T12:13:14.252Z,40.52
2022-09-12T12:15:47.675Z,41.87
2022-09-12T12:18:19.241Z,42.59
2022-09-12T12:20:47.240Z,44.09
2022-09-12T12:23:26.803Z,45.34
2022-09-12T12:25:56.464Z,48.61
2022-09-12T12:29:00.025Z,46.68
2022-09-12T12:31:27.714Z,44.54
2022-09-12T12:34:26.247Z,42.69
2022-09-12T12:36:55.256Z,45.68
2022-09-12T12:40:00.846Z,47.03
2022-09-12T12:43:22.312Z,48.93
2022-09-12T12:46:12.838Z,48.86
2022-09-12T12:49:01.483Z,49.38
2022-09-12T12:51:33.924Z,48.18
2022-09-12T12:54:04.807Z,49.46
2022-09-12T12:56:40.119Z,48.58
2022-09-12T12:59:18.193Z,45.42
2022-09-12T13:01:52.819Z,43.39
2022-09-12T13:04:24.488Z,41.07
2022-09-12T13:07:02.574Z,42.17
2022-09-12T13:09:35.836Z,44.50
2022-09-12T13:12:06.044Z,44.65
2022-09-12T13:14:49.226Z,44.47
2022-09-12T13:17:22.883Z,43.81
2022-09-12T13:20:10.627Z,46.74
2022-09-12T13:22:42.556Z,48.49
2022-09-12T13:25:23.866Z,47.92
2022-09-12T13:28:18.376Z,47.95
2022-09-12T13:30:48.632Z,49.76
2022-09-12T13:33:21.726Z,50.05
2022-09-12T13:36:09.769Z,49.24
2022-09-12T13:38:47.931Z,49.22
2022-09-12T13:41:33.892Z,50.47
2022-09-12T13:44:02.533Z,50.43
2022-09-12T13:46:33.913Z,50.43
2022-09-12T13:49:18.593Z,50.49
2022-09-12T13:51:46.192Z,51.20
2022-09-12T13:54:23.871Z,48.98
2022-09-12T13:56:53.310Z,49.98
2022-09-12T13:59:20.737Z,50.38
2022-09-12T14:01:48.803Z,49.30
2022-09-12T14:04:36.353Z,48.68
2022-09-12T14:07:12.911Z,48.56
2022-09-12T14:09:42.642Z,49.83
2022-09-12T14:12:25.071Z,50.31
2022-09-12T14:14:54.075Z,49.91
2022-09-12T14:17:27.417Z,49.91
2022-09-12T14:19:55.390Z,50.66
2022-09-12T14:22:23.484Z,50.79
2022-09-12T14:24:51.779Z,50.23
2022-09-12T14:27:26.687Z,51.40
2022-09-12T14:29:59.012Z,51.66
2022-09-12T14:32:26.456Z,51.23
2022-09-12T14:35:14.938Z,53.59
2022-09-12T14:37:51.168Z,52.13
2022-09-12T14:40:21.511Z,51.21
2022-09-12T14:42:52.614Z,51.18
2022-09-12T14:45:32.345Z,51.97
2022-09-12T14:48:00.382Z,51.99
2022-09-12T14:50:31.179Z,50.71
2022-09-12T14:53:06.406Z,50.77
2022-09-12T14:55:35.220Z,50.83
2022-09-12T14:58:17.100Z,50.41
2022-09-12T15:00:55.935Z,49.33
2022-09-12T15:03:28.167Z,48.95
2022-09-12T15:05:56.191Z,48.60
2022-09-12T15:08:23.980Z,48.44
2022-09-12T15:10:51.580Z,48.40
2022-09-12T15:13:22.949Z,49.34
2022-09-12T15:15:52.684Z,50.44
2022-09-12T15:18:21.397Z,49.82
2022-09-12T15:20:51.266Z,49.81
2022-09-12T15:23:22.060Z,51.84
2022-09-12T15:25:50.114Z,51.74
2022-09-12T15:28:22.471Z,50.76
2022-09-12T15:30:51.394Z,52.20
2022-09-12T15:33:20.851Z,51.93
2022-09-12T15:35:48.365Z,52.67
2022-09-12T15:38:15.842Z,52.80
2022-09-12T15:40:43.335Z,52.76
2022-09-12T15:43:12.995Z,52.88
2022-09-12T15:45:51.347Z,55.25
2022-09-12T15:48:19.198Z,55.64
2022-09-12T15:50:46.710Z,56.47
2022-09-12T15:53:16.079Z,58.06
2022-09-12T15:55:43.932Z,58.97
2022-09-12T15:58:11.729Z,56.28
2022-09-12T16:00:39.263Z,55.64
2022-09-12T16:03:13.650Z,54.20
2022-09-12T16:05:45.518Z,53.28
2022-09-12T16:08:12.989Z,53.37
2022-09-12T16:10:40.465Z,52.52
2022-09-12T16:13:07.910Z,50.32
2022-09-12T16:15:35.715Z,50.43
2022-09-12T16:18:03.195Z,51.16
2022-09-12T16:20:31.996Z,50.21
2022-09-12T16:22:59.482Z,49.86
2022-09-12T16:25:26.932Z,48.90
2022-09-12T16:27:54.447Z,48.72
2022-09-12T16:30:22.051Z,48.54
2022-09-12T16:32:49.542Z,47.55
2022-09-12T16:35:17.114Z,47.43
2022-09-12T16:37:45.903Z,47.00
2022-09-12T16:40:15.237Z,46.32
2022-09-12T16:42:43.891Z,47.14
2022-09-12T16:45:12.539Z,45.72
2022-09-12T16:47:40.098Z,45.12
2022-09-12T16:50:08.834Z,45.47
2022-09-12T16:52:36.479Z,45.79
2022-09-12T16:55:06.218Z,46.23
2022-09-12T16:57:33.930Z,47.67
2022-09-12T17:00:01.402Z,48.39
2022-09-12T17:02:28.889Z,49.46
2022-09-12T17:04:56.699Z,49.96
2022-09-12T17:07:24.163Z,49.59
2022-09-12T17:09:51.992Z,49.92
2022-09-12T17:12:20.787Z,50.37
2022-09-12T17:14:48.239Z,50.82
2022-09-12T17:17:15.691Z,53.06
2022-09-12T17:19:43.399Z,56.04
2022-09-12T17:22:10.876Z,59.28
2022-09-12T17:24:38.364Z,62.31
2022-09-12T17:27:06.267Z,65.07
2022-09-12T17:29:36.972Z,68.53
2022-09-12T17:32:04.463Z,70.29
2022-09-12T17:34:32.095Z,72.81
2022-09-12T17:36:59.554Z,76.28
2022-09-12T17:39:27.312Z,79.05
2022-09-12T17:41:57.374Z,81.83
2022-09-12T17:44:24.892Z,85.65
2022-09-12T17:46:53.679Z,86.44
2022-09-12T17:49:22.005Z,89.34
2022-09-12T17:51:49.587Z,93.12
2022-09-12T17:54:20.679Z,94.98
2022-09-12T17:56:51.216Z,99.57
2022-09-12T17:59:20.462Z,100.00
2022-09-12T18:02:05.849Z,100.00
2022-09-12T18:04:34.713Z,100.00
2022-09-12T18:07:02.285Z,100.00
2022-09-12T18:09:30.638Z,100.00
2022-09-12T18:11:58.415Z,100.00
2022-09-12T18:14:27.649Z,100.00
2022-09-12T18:16:57.019Z,100.00
2022-09-12T18:19:25.207Z,100.00
2022-09-12T18:21:54.367Z,100.00
2022-09-12T18:24:22.111Z,100.00
2022-09-12T18:26:49.642Z,100.00
2022-09-12T18:29:17.623Z,100.00
2022-09-12T18:31:46.644Z,100.00
2022-09-12T18:34:14.620Z,100.00
2022-09-12T18:36:42.795Z,100.00
2022-09-12T18:39:12.220Z,100.00
2022-09-12T18:41:40.322Z,100.00
2022-09-12T18:44:08.570Z,100.00
2022-09-12T18:46:36.449Z,100.00
2022-09-12T18:49:05.539Z,100.00
2022-09-12T18:51:35.910Z,100.00
2022-09-12T18:54:06.749Z,100.00
2022-09-12T18:56:38.242Z,100.00
2022-09-12T18:59:07.314Z,100.00
2022-09-12T19:01:36.545Z,100.00
2022-09-12T19:04:06.002Z,100.00
2022-09-12T19:06:36.162Z,100.00
2022-09-12T19:09:07.768Z,100.00
2022-09-12T19:11:39.512Z,100.00
2022-09-12T19:14:08.181Z,100.00
2022-09-12T19:16:36.103Z,100.00
2022-09-12T19:19:04.216Z,100.00
2022-09-12T19:21:32.876Z,100.00
2022-09-12T19:24:02.953Z,100.00
2022-09-12T19:26:31.852Z,100.00
2022-09-12T19:29:02.466Z,100.00
2022-09-12T19:31:30.815Z,100.00
2022-09-12T19:34:01.383Z,100.00
2022-09-12T19:36:46.212Z,100.00
2022-09-12T19:39:14.443Z,100.00
2022-09-12T19:41:42.507Z,100.00
2022-09-12T19:44:11.530Z,100.00
2022-09-12T19:46:39.472Z,100.00
2022-09-12T19:49:07.004Z,100.00
2022-09-12T19:51:34.463Z,100.00
2022-09-12T19:54:02.109Z,100.00
2022-09-12T19:56:29.574Z,100.00
2022-09-12T19:58:57.109Z,100.00
2022-09-12T20:01:28.178Z,100.00
2022-09-12T20:03:56.418Z,100.00
2022-09-12T20:06:24.259Z,100.00
2022-09-12T20:08:51.970Z,100.00
2022-09-12T20:11:21.475Z,100.00
2022-09-12T20:13:49.131Z,100.00
2022-09-12T20:16:21.661Z,100.00
2022-09-12T20:18:54.410Z,100.00
2022-09-12T20:21:25.174Z,100.00
2022-09-12T20:23:52.874Z,100.00
2022-09-12T20:26:20.707Z,100.00
2022-09-12T20:28:48.592Z,100.00
2022-09-12T20:31:17.488Z,100.00
2022-09-12T20:33:49.837Z,100.00
2022-09-12T20:36:21.820Z,100.00
2022-09-12T20:38:50.789Z,100.00
2022-09-12T20:41:20.098Z,100.00
2022-09-12T20:43:50.962Z,100.00
2022-09-12T20:46:21.909Z,100.00
2022-09-12T20:48:50.273Z,100.00
2022-09-12T20:51:18.448Z,100.00
2022-09-12T20:53:47.983Z,100.00
2022-09-12T20:56:15.611Z,100.00
2022-09-12T20:58:44.630Z,100.00
2022-09-12T21:01:15.720Z,100.00
2022-09-12T21:03:44.661Z,100.00
2022-09-12T21:06:14.187Z,100.00
2022-09-12T21:08:41.651Z,100.00
2022-09-12T21:11:10.816Z,100.00
2022-09-12T21:13:38.899Z,100.00
2022-09-12T21:16:08.934Z,100.00
2022-09-12T21:18:37.311Z,100.00
2022-09-12T21:21:05.851Z,100.00
2022-09-12T21:23:34.428Z,100.00
2022-09-12T21:26:02.848Z,100.00
2022-09-12T21:28:32.506Z,100.00
2022-09-12T21:31:00.142Z,100.00
2022-09-12T21:33:28.105Z,100.00
2022-09-12T21:35:57.908Z,100.00
2022-09-12T21:38:25.437Z,100.00
2022-09-12T21:40:52.970Z,100.00
2022-09-12T21:43:20.426Z,100.00
2022-09-12T21:45:49.878Z,100.00
2022-09-12T21:48:17.340Z,100.00
2022-09-12T21:50:50.635Z,100.00
2022-09-12T21:53:18.278Z,100.00
2022-09-12T21:55:45.766Z,100.00
2022-09-12T21:58:13.276Z,100.00
2022-09-12T22:00:42.096Z,100.00
2022-09-12T22:03:11.529Z,100.00
2022-09-12T22:05:40.100Z,100.00
2022-09-12T22:08:08.450Z,100.00
2022-09-12T22:10:36.432Z,100.00
2022-09-12T22:13:04.066Z,100.00
2022-09-12T22:15:46.946Z,100.00
2022-09-12T22:18:15.859Z,100.00
2022-09-12T22:20:43.303Z,100.00
2022-09-12T22:23:26.562Z,100.00
2022-09-12T22:25:56.160Z,100.00
2022-09-12T22:28:25.027Z,100.00
2022-09-12T22:30:54.259Z,100.00
2022-09-12T22:33:23.301Z,100.00
2022-09-12T22:35:50.838Z,100.00
2022-09-12T22:38:18.334Z,100.00
2022-09-12T22:40:45.833Z,100.00
2022-09-12T22:43:13.443Z,100.00
2022-09-12T22:45:41.872Z,100.00
2022-09-12T22:48:09.527Z,100.00
2022-09-12T22:50:38.409Z,100.00
2022-09-12T22:53:05.901Z,100.00
2022-09-12T22:55:33.338Z,100.00
2022-09-12T22:58:00.932Z,100.00
2022-09-12T23:00:29.940Z,100.00
2022-09-12T23:02:58.308Z,100.00
2022-09-12T23:05:25.917Z,100.00
2022-09-12T23:07:55.528Z,100.00
2022-09-12T23:10:23.303Z,100.00
2022-09-12T23:12:50.771Z,100.00
2022-09-12T23:15:18.265Z,100.00
2022-09-12T23:17:45.769Z,100.00
2022-09-12T23:20:13.238Z,100.00
2022-09-12T23:22:40.714Z,100.00
2022-09-12T23:25:10.162Z,100.00
2022-09-12T23:27:37.647Z,100.00
2022-09-12T23:30:05.882Z,100.00
2022-09-12T23:32:33.491Z,100.00
2022-09-12T23:35:00.965Z,100.00
2022-09-12T23:37:28.422Z,100.00
2022-09-12T23:39:55.962Z,100.00
2022-09-12T23:42:24.866Z,100.00
2022-09-12T23:44:52.348Z,100.00
2022-09-12T23:47:19.817Z,100.00
2022-09-12T23:49:47.294Z,100.00
2022-09-12T23:52:14.743Z,100.00
2022-09-12T23:54:42.196Z,100.00
2022-09-12T23:57:09.702Z,100.00
2022-09-12T23:59:38.518Z,100.00
